createdAt,value
2022-08-08T00:00:50.375Z,84.68
2022-08-08T00:00:55.026Z,84.58
2022-08-08T00:01:11.509Z,84.68
2022-08-08T00:02:33.266Z,84.39
2022-08-08T00:03:19.843Z,84.58
2022-08-08T00:04:16.334Z,84.49
2022-08-08T00:05:11.605Z,85.16
2022-08-08T00:06:11.628Z,84.88
2022-08-08T00:07:12.977Z,84.68
2022-08-08T00:08:12.547Z,84.97
2022-08-08T00:09:12.232Z,85.45
2022-08-08T00:10:11.733Z,85.25
2022-08-08T00:11:13.210Z,84.83
2022-08-08T00:12:11.787Z,85.12
2022-08-08T00:13:11.811Z,85.02
2022-08-08T00:14:15.912Z,85.50
2022-08-08T00:15:13.082Z,84.92
2022-08-08T00:16:11.888Z,85.79
2022-08-08T00:17:22.939Z,84.92
2022-08-08T00:18:11.939Z,85.21
2022-08-08T00:19:11.966Z,85.41
2022-08-08T00:20:14.598Z,85.50
2022-08-08T00:21:12.017Z,85.69
2022-08-08T00:22:12.040Z,85.41
2022-08-08T00:23:14.805Z,85.69
2022-08-08T00:24:12.094Z,85.69
2022-08-08T00:25:12.118Z,85.69
2022-08-08T00:26:26.029Z,85.60
2022-08-08T00:28:34.612Z,85.69
2022-08-08T00:29:42.260Z,85.79
2022-08-08T00:32:21.542Z,85.79
2022-08-08T00:32:35.132Z,85.69
2022-08-08T00:34:24.219Z,85.69
2022-08-08T00:35:24.248Z,85.31
2022-08-08T00:37:48.325Z,85.60
2022-08-08T00:38:31.804Z,85.60
2022-08-08T00:41:11.864Z,85.69
2022-08-08T00:41:21.976Z,85.50
2022-08-08T00:43:25.760Z,85.79
2022-08-08T00:44:25.264Z,85.41
2022-08-08T00:46:32.188Z,85.98
2022-08-08T00:47:36.801Z,85.79
2022-08-08T00:49:33.795Z,85.88
2022-08-08T00:50:33.323Z,86.08
2022-08-08T00:52:39.067Z,85.98
2022-08-08T00:53:43.556Z,85.69
2022-08-08T00:55:53.938Z,86.08
2022-08-08T00:56:41.762Z,86.27
2022-08-08T00:57:41.415Z,86.61
2022-08-08T00:58:43.714Z,86.32
2022-08-08T00:59:43.990Z,87.13
2022-08-08T01:00:41.495Z,86.74
2022-08-08T01:01:41.597Z,86.74
2022-08-08T01:03:57.471Z,86.55
2022-08-08T01:04:02.570Z,86.51
2022-08-08T01:04:41.994Z,86.70
2022-08-08T01:05:42.219Z,87.08
2022-08-08T01:06:41.641Z,87.18
2022-08-08T01:07:56.425Z,86.90
2022-08-08T01:08:46.619Z,87.18
2022-08-08T01:09:41.742Z,87.18
2022-08-08T01:10:41.746Z,87.47
2022-08-08T01:11:41.768Z,87.66
2022-08-08T01:12:41.790Z,87.47
2022-08-08T01:13:43.359Z,87.37
2022-08-08T01:14:54.078Z,87.56
2022-08-08T01:15:44.032Z,87.56
2022-08-08T01:16:41.903Z,87.76
2022-08-08T01:17:53.280Z,87.66
2022-08-08T01:18:53.764Z,88.33
2022-08-08T01:20:02.146Z,88.23
2022-08-08T01:20:44.211Z,88.13
2022-08-08T01:22:13.125Z,88.13
2022-08-08T01:22:43.199Z,88.19
2022-08-08T01:24:06.550Z,88.04
2022-08-08T01:24:43.599Z,88.29
2022-08-08T01:25:42.686Z,88.29
2022-08-08T01:26:47.793Z,88.23
2022-08-08T01:27:43.642Z,88.33
2022-08-08T01:28:42.206Z,88.04
2022-08-08T01:29:59.326Z,88.33
2022-08-08T01:30:42.257Z,88.13
2022-08-08T01:32:12.913Z,88.33
2022-08-08T01:32:42.297Z,87.66
2022-08-08T01:33:54.262Z,88.33
2022-08-08T01:34:42.353Z,87.76
2022-08-08T01:35:42.377Z,87.71
2022-08-08T01:36:42.398Z,88.23
2022-08-08T01:37:58.295Z,87.95
2022-08-08T01:38:42.451Z,88.67
2022-08-08T01:39:42.531Z,88.48
2022-08-08T01:40:42.498Z,88.38
2022-08-08T01:41:43.780Z,88.48
2022-08-08T01:42:42.558Z,88.38
2022-08-08T01:43:42.573Z,88.19
2022-08-08T01:44:42.600Z,88.09
2022-08-08T01:45:42.623Z,88.09
2022-08-08T01:46:42.651Z,88.38
2022-08-08T01:48:14.473Z,88.76
2022-08-08T01:48:43.763Z,89.05
2022-08-08T01:49:42.742Z,89.34
2022-08-08T01:50:42.996Z,89.34
2022-08-08T01:52:27.692Z,89.34
2022-08-08T01:55:16.184Z,90.01
2022-08-08T01:55:16.185Z,89.72
2022-08-08T01:55:25.651Z,90.01
2022-08-08T01:56:28.417Z,90.30
2022-08-08T01:56:46.785Z,90.44
2022-08-08T01:58:11.559Z,90.48
2022-08-08T01:58:46.509Z,89.87
2022-08-08T02:00:02.041Z,91.06
2022-08-08T02:00:43.040Z,90.25
2022-08-08T02:02:00.715Z,90.44
2022-08-08T02:02:43.278Z,90.73
2022-08-08T02:03:55.202Z,90.73
2022-08-08T02:04:43.667Z,91.20
2022-08-08T02:05:56.887Z,90.82
2022-08-08T02:06:43.615Z,90.82
2022-08-08T02:07:48.876Z,90.82
2022-08-08T02:08:45.686Z,91.02
2022-08-08T02:10:02.274Z,91.02
2022-08-08T02:10:45.094Z,90.82
2022-08-08T02:11:59.362Z,90.92
2022-08-08T02:12:43.303Z,90.92
2022-08-08T02:13:52.686Z,91.20
2022-08-08T02:14:50.175Z,91.02
2022-08-08T02:15:43.376Z,90.82
2022-08-08T02:16:43.399Z,90.82
2022-08-08T02:17:43.670Z,90.63
2022-08-08T02:18:43.448Z,90.82
2022-08-08T02:20:08.080Z,90.63
2022-08-08T02:21:00.786Z,90.82
2022-08-08T02:21:43.566Z,90.82
2022-08-08T02:22:52.660Z,91.39
2022-08-08T02:23:43.572Z,91.49
2022-08-08T02:24:44.314Z,91.59
2022-08-08T02:25:48.371Z,91.49
2022-08-08T02:26:43.667Z,92.16
2022-08-08T02:27:43.919Z,91.78
2022-08-08T02:28:48.126Z,91.97
2022-08-08T02:29:51.811Z,92.07
2022-08-08T02:30:49.703Z,91.97
2022-08-08T02:31:58.692Z,91.97
2022-08-08T02:32:43.796Z,92.54
2022-08-08T02:34:08.499Z,92.54
2022-08-08T02:35:08.527Z,92.54
2022-08-08T02:36:04.281Z,92.93
2022-08-08T02:36:43.913Z,92.54
2022-08-08T02:37:52.580Z,92.93
2022-08-08T02:38:44.848Z,92.54
2022-08-08T02:40:00.121Z,92.83
2022-08-08T02:40:45.229Z,92.74
2022-08-08T02:41:59.424Z,92.93
2022-08-08T02:42:44.045Z,92.16
2022-08-08T02:44:39.045Z,92.35
2022-08-08T02:44:57.283Z,92.45
2022-08-08T02:45:54.114Z,92.45
2022-08-08T02:46:44.140Z,92.69
2022-08-08T02:47:46.813Z,93.07
2022-08-08T02:48:45.134Z,92.88
2022-08-08T02:49:51.107Z,92.79
2022-08-08T02:50:52.942Z,93.55
2022-08-08T02:51:55.078Z,93.26
2022-08-08T02:52:50.243Z,93.26
2022-08-08T02:53:44.313Z,93.55
2022-08-08T02:54:44.338Z,93.45
2022-08-08T02:55:44.356Z,94.02
2022-08-08T02:56:44.383Z,93.45
2022-08-08T02:57:45.636Z,93.45
2022-08-08T02:58:44.436Z,93.26
2022-08-08T02:59:58.562Z,93.16
2022-08-08T03:00:50.787Z,93.36
2022-08-08T03:01:50.095Z,93.16
2022-08-08T03:02:50.469Z,93.45
2022-08-08T03:05:00.750Z,93.55
2022-08-08T03:05:02.328Z,93.45
2022-08-08T03:05:46.553Z,93.36
2022-08-08T03:06:44.626Z,93.07
2022-08-08T03:07:58.407Z,93.36
2022-08-08T03:08:44.680Z,93.36
2022-08-08T03:09:45.036Z,93.65
2022-08-08T03:10:53.567Z,93.45
2022-08-08T03:12:02.194Z,94.02
2022-08-08T03:13:01.351Z,94.22
2022-08-08T03:15:56.987Z,94.22
2022-08-08T03:15:59.173Z,93.84
2022-08-08T03:16:03.865Z,94.31
2022-08-08T03:16:48.358Z,94.02
2022-08-08T03:17:59.670Z,94.22
2022-08-08T03:18:44.927Z,94.60
2022-08-08T03:19:51.103Z,94.60
2022-08-08T03:20:47.125Z,94.31
2022-08-08T03:21:58.917Z,94.31
2022-08-08T03:22:45.017Z,94.89
2022-08-08T03:23:59.811Z,95.07
2022-08-08T03:24:45.070Z,94.98
2022-08-08T03:25:45.094Z,95.07
2022-08-08T03:26:45.120Z,94.70
2022-08-08T03:27:45.146Z,94.89
2022-08-08T03:28:45.168Z,94.60
2022-08-08T03:29:54.658Z,94.89
2022-08-08T03:30:48.832Z,94.79
2022-08-08T03:32:06.092Z,94.98
2022-08-08T03:32:47.321Z,94.70
2022-08-08T03:33:58.919Z,94.60
2022-08-08T03:34:45.337Z,94.60
2022-08-08T03:35:45.341Z,95.07
2022-08-08T03:36:46.435Z,94.70
2022-08-08T03:38:53.719Z,94.98
2022-08-08T03:38:57.694Z,95.07
2022-08-08T03:39:52.031Z,94.89
2022-08-08T03:40:49.935Z,94.98
2022-08-08T03:42:26.642Z,95.07
2022-08-08T03:42:45.698Z,94.60
2022-08-08T03:43:45.534Z,94.51
2022-08-08T03:44:52.080Z,94.51
2022-08-08T03:46:03.272Z,94.70
2022-08-08T03:46:47.188Z,94.79
2022-08-08T03:47:48.316Z,94.89
2022-08-08T03:49:09.404Z,94.70
2022-08-08T03:50:00.646Z,94.51
2022-08-08T03:50:45.701Z,94.79
2022-08-08T03:51:51.478Z,94.89
2022-08-08T03:52:45.750Z,94.98
2022-08-08T03:53:47.745Z,94.98
2022-08-08T03:55:02.667Z,94.98
2022-08-08T03:55:57.621Z,94.98
2022-08-08T03:56:46.405Z,94.98
2022-08-08T03:58:31.085Z,94.84
2022-08-08T03:58:47.746Z,94.79
2022-08-08T03:59:57.362Z,94.98
2022-08-08T04:01:02.160Z,94.84
2022-08-08T04:02:12.525Z,95.12
2022-08-08T04:02:51.742Z,94.98
2022-08-08T04:04:00.163Z,95.32
2022-08-08T04:04:46.121Z,95.07
2022-08-08T04:05:49.819Z,94.79
2022-08-08T04:06:46.094Z,94.89
2022-08-08T04:07:46.117Z,95.36
2022-08-08T04:08:46.159Z,95.27
2022-08-08T04:09:59.094Z,95.27
2022-08-08T04:10:46.187Z,95.07
2022-08-08T04:11:58.140Z,95.07
2022-08-08T04:12:46.256Z,94.98
2022-08-08T04:14:03.014Z,94.89
2022-08-08T04:14:46.289Z,94.79
2022-08-08T04:15:54.809Z,94.70
2022-08-08T04:16:49.317Z,94.60
2022-08-08T04:17:59.002Z,94.70
2022-08-08T04:18:48.840Z,94.89
2022-08-08T04:19:46.406Z,94.89
2022-08-08T04:20:46.432Z,95.27
2022-08-08T04:21:46.457Z,95.27
2022-08-08T04:22:46.484Z,95.07
2022-08-08T04:24:11.856Z,95.17
2022-08-08T04:24:50.116Z,94.98
2022-08-08T04:25:46.554Z,95.27
2022-08-08T04:26:57.929Z,95.46
2022-08-08T04:28:10.534Z,95.70
2022-08-08T04:28:46.624Z,95.79
2022-08-08T04:30:00.856Z,94.98
2022-08-08T04:30:46.678Z,94.79
2022-08-08T04:31:59.045Z,94.26
2022-08-08T04:32:49.920Z,93.30
2022-08-08T04:33:46.753Z,92.58
2022-08-08T04:34:55.339Z,91.29
2022-08-08T04:35:50.911Z,89.66
2022-08-08T04:36:46.827Z,88.46
2022-08-08T04:37:46.851Z,87.21
2022-08-08T04:38:47.498Z,85.72
2022-08-08T04:40:03.994Z,84.61
2022-08-08T04:40:53.634Z,82.70
2022-08-08T04:41:46.961Z,81.35
2022-08-08T04:42:56.659Z,80.91
2022-08-08T04:43:51.173Z,79.67
2022-08-08T04:44:47.791Z,78.99
2022-08-08T04:45:47.078Z,77.59
2022-08-08T04:46:47.085Z,77.44
2022-08-08T04:47:47.237Z,77.53
2022-08-08T04:48:47.154Z,76.67
2022-08-08T04:50:00.822Z,77.11
2022-08-08T04:50:47.185Z,76.25
2022-08-08T04:51:55.244Z,76.44
2022-08-08T04:52:48.676Z,76.82
2022-08-08T04:54:27.102Z,77.01
2022-08-08T04:54:50.668Z,76.92
2022-08-08T04:55:55.893Z,76.73
2022-08-08T04:56:47.344Z,76.73
2022-08-08T04:57:47.370Z,76.88
2022-08-08T04:58:48.479Z,77.08
2022-08-08T04:59:47.422Z,76.88
2022-08-08T05:00:47.711Z,77.17
2022-08-08T05:01:48.579Z,77.42
2022-08-08T05:02:47.605Z,77.04
2022-08-08T05:04:09.877Z,76.75
2022-08-08T05:04:47.559Z,78.09
2022-08-08T05:05:47.582Z,78.28
2022-08-08T05:06:47.608Z,78.72
2022-08-08T05:07:47.637Z,78.72
2022-08-08T05:08:51.388Z,78.92
2022-08-08T05:09:47.695Z,79.49
2022-08-08T05:10:47.714Z,80.60
2022-08-08T05:11:57.319Z,80.89
2022-08-08T05:12:59.945Z,81.66
2022-08-08T05:13:54.992Z,81.71
2022-08-08T05:14:47.819Z,82.29
2022-08-08T05:16:50.925Z,83.34
2022-08-08T05:16:53.898Z,83.72
2022-08-08T05:17:54.595Z,83.59
2022-08-08T05:18:47.936Z,84.39
2022-08-08T05:20:10.475Z,84.88
2022-08-08T05:20:49.993Z,85.21
2022-08-08T05:21:59.820Z,85.60
2022-08-08T05:22:48.025Z,85.06
2022-08-08T05:23:48.048Z,85.64
2022-08-08T05:24:49.383Z,85.93
2022-08-08T05:25:48.105Z,85.83
2022-08-08T05:26:48.818Z,86.55
2022-08-08T05:27:48.149Z,86.79
2022-08-08T05:28:57.068Z,87.13
2022-08-08T05:29:50.386Z,87.23
2022-08-08T05:30:48.232Z,87.41
2022-08-08T05:32:04.987Z,87.51
2022-08-08T05:32:48.340Z,87.51
2022-08-08T05:33:49.673Z,87.55
2022-08-08T05:34:49.334Z,87.55
2022-08-08T05:35:53.962Z,87.65
2022-08-08T05:36:48.386Z,87.94
2022-08-08T05:37:53.869Z,87.65
2022-08-08T05:38:48.439Z,87.74
2022-08-08T05:39:48.518Z,88.42
2022-08-08T05:40:48.976Z,88.37
2022-08-08T05:41:55.193Z,87.88
2022-08-08T05:42:49.195Z,87.50
2022-08-08T05:44:03.248Z,87.70
2022-08-08T05:44:49.037Z,87.21
2022-08-08T05:45:54.782Z,87.02
2022-08-08T05:46:51.329Z,87.35
2022-08-08T05:48:00.151Z,87.07
2022-08-08T05:48:52.117Z,86.49
2022-08-08T05:49:55.976Z,86.30
2022-08-08T05:50:48.757Z,85.82
2022-08-08T05:51:49.658Z,85.82
2022-08-08T05:52:48.806Z,86.01
2022-08-08T05:54:25.797Z,85.86
2022-08-08T05:54:51.200Z,86.11
2022-08-08T05:56:10.198Z,85.67
2022-08-08T05:56:48.908Z,86.15
2022-08-08T05:58:05.416Z,86.15
2022-08-08T05:58:53.844Z,85.67
2022-08-08T06:00:00.730Z,86.05
2022-08-08T06:00:58.349Z,85.96
2022-08-08T06:01:55.921Z,85.00
2022-08-08T06:02:49.143Z,85.28
2022-08-08T06:03:53.534Z,84.91
2022-08-08T06:04:54.555Z,84.91
2022-08-08T06:05:51.674Z,84.61
2022-08-08T06:06:50.356Z,84.85
2022-08-08T06:07:49.197Z,84.80
2022-08-08T06:08:53.393Z,84.17
2022-08-08T06:10:00.931Z,81.71
2022-08-08T06:10:49.278Z,79.98
2022-08-08T06:11:49.301Z,79.25
2022-08-08T06:12:49.550Z,78.33
2022-08-08T06:13:49.595Z,76.82
2022-08-08T06:14:49.388Z,76.13
2022-08-08T06:15:50.984Z,74.43
2022-08-08T06:16:52.153Z,73.02
2022-08-08T06:17:51.288Z,71.42
2022-08-08T06:18:50.252Z,69.52
2022-08-08T06:19:49.534Z,68.07
2022-08-08T06:20:50.434Z,66.75
2022-08-08T06:21:51.452Z,66.40
2022-08-08T06:22:50.175Z,63.73
2022-08-08T06:24:03.412Z,63.43
2022-08-08T06:24:51.198Z,62.50
2022-08-08T06:26:35.307Z,62.43
2022-08-08T06:26:50.561Z,60.62
2022-08-08T06:27:49.775Z,59.75
2022-08-08T06:28:49.809Z,59.36
2022-08-08T06:30:00.900Z,59.49
2022-08-08T06:30:49.879Z,58.62
2022-08-08T06:32:09.060Z,58.42
2022-08-08T06:32:50.186Z,58.81
2022-08-08T06:34:26.635Z,58.23
2022-08-08T06:34:52.484Z,58.33
2022-08-08T06:36:04.870Z,59.00
2022-08-08T06:36:53.780Z,58.14
2022-08-08T06:37:51.059Z,58.33
2022-08-08T06:38:50.123Z,57.39
2022-08-08T06:39:55.848Z,57.00
2022-08-08T06:40:53.704Z,56.51
2022-08-08T06:41:50.215Z,56.71
2022-08-08T06:42:50.259Z,56.03
2022-08-08T06:43:57.484Z,55.54
2022-08-08T06:44:50.319Z,55.83
2022-08-08T06:45:50.353Z,56.23
2022-08-08T06:46:50.381Z,56.87
2022-08-08T06:47:52.616Z,56.87
2022-08-08T06:48:50.449Z,56.49
2022-08-08T06:49:56.811Z,56.20
2022-08-08T06:50:52.069Z,56.87
2022-08-08T06:51:57.776Z,56.97
2022-08-08T06:52:50.660Z,57.45
2022-08-08T06:53:56.140Z,57.36
2022-08-08T06:54:50.667Z,56.87
2022-08-08T06:56:01.920Z,57.36
2022-08-08T06:56:51.561Z,57.45
2022-08-08T06:57:56.350Z,56.71
2022-08-08T06:58:50.784Z,56.81
2022-08-08T07:00:10.138Z,56.41
2022-08-08T07:00:58.026Z,56.61
2022-08-08T07:02:55.903Z,56.13
2022-08-08T07:04:36.856Z,55.87
2022-08-08T07:06:02.063Z,54.90
2022-08-08T07:06:58.968Z,55.28
2022-08-08T07:07:59.002Z,55.08
2022-08-08T07:08:59.036Z,55.28
2022-08-08T07:10:00.353Z,55.47
2022-08-08T07:10:59.107Z,54.50
2022-08-08T07:11:59.163Z,54.86
2022-08-08T07:12:59.177Z,55.26
2022-08-08T07:14:00.795Z,56.68
2022-08-08T07:14:59.247Z,56.87
2022-08-08T07:16:04.615Z,58.33
2022-08-08T07:16:59.307Z,58.20
2022-08-08T07:18:01.784Z,58.20
2022-08-08T07:18:59.376Z,58.39
2022-08-08T07:19:59.916Z,58.56
2022-08-08T07:21:01.873Z,58.47
2022-08-08T07:22:05.581Z,59.53
2022-08-08T07:22:59.510Z,60.27
2022-08-08T07:24:03.865Z,60.47
2022-08-08T07:24:59.577Z,60.24
2022-08-08T07:25:59.605Z,61.40
2022-08-08T07:26:59.641Z,62.05
2022-08-08T07:28:02.107Z,62.53
2022-08-08T07:28:59.709Z,62.05
2022-08-08T07:30:08.056Z,62.40
2022-08-08T07:30:59.771Z,63.47
2022-08-08T07:31:59.797Z,63.28
2022-08-08T07:33:01.103Z,63.73
2022-08-08T07:33:59.871Z,63.92
2022-08-08T07:35:01.099Z,63.73
2022-08-08T07:35:59.924Z,64.31
2022-08-08T07:36:59.956Z,64.50
2022-08-08T07:38:10.281Z,64.59
2022-08-08T07:39:00.078Z,64.56
2022-08-08T07:40:00.182Z,64.47
2022-08-08T07:41:04.664Z,64.95
2022-08-08T07:42:04.765Z,65.24
2022-08-08T07:43:00.136Z,64.66
2022-08-08T07:44:00.192Z,65.14
2022-08-08T07:45:00.202Z,64.95
2022-08-08T07:46:17.797Z,65.24
2022-08-08T07:47:00.259Z,65.37
2022-08-08T07:48:00.290Z,65.14
2022-08-08T07:49:00.320Z,64.89
2022-08-08T07:50:00.349Z,64.59
2022-08-08T07:51:00.384Z,64.66
2022-08-08T07:52:00.409Z,64.79
2022-08-08T07:53:00.435Z,64.47
2022-08-08T07:54:02.958Z,64.59
2022-08-08T07:55:00.498Z,64.31
2022-08-08T07:56:00.531Z,64.40
2022-08-08T07:57:01.767Z,64.31
2022-08-08T07:58:00.587Z,64.01
2022-08-08T07:59:00.626Z,64.11
2022-08-08T08:00:00.650Z,63.92
2022-08-08T08:01:00.731Z,64.59
2022-08-08T08:02:34.636Z,64.59
2022-08-08T08:03:00.735Z,63.43
2022-08-08T08:04:00.768Z,63.05
2022-08-08T08:05:00.802Z,62.47
2022-08-08T08:06:00.842Z,62.08
2022-08-08T08:07:00.864Z,61.99
2022-08-08T08:08:00.909Z,62.28
2022-08-08T08:09:00.919Z,63.43
2022-08-08T08:10:00.946Z,64.21
2022-08-08T08:11:00.978Z,63.73
2022-08-08T08:12:01.007Z,63.34
2022-08-08T08:13:01.043Z,63.43
2022-08-08T08:14:07.396Z,63.63
2022-08-08T08:15:02.988Z,63.92
2022-08-08T08:16:01.132Z,63.24
2022-08-08T08:17:01.170Z,63.08
2022-08-08T08:18:01.189Z,63.08
2022-08-08T08:19:01.217Z,62.98
2022-08-08T08:20:01.245Z,61.63
2022-08-08T08:21:01.279Z,61.83
2022-08-08T08:22:02.494Z,62.31
2022-08-08T08:23:01.340Z,60.86
2022-08-08T08:24:02.767Z,61.25
2022-08-08T08:25:07.576Z,61.15
2022-08-08T08:26:01.443Z,60.28
2022-08-08T08:27:02.714Z,60.38
2022-08-08T08:28:02.977Z,60.57
2022-08-08T08:29:01.519Z,60.18
2022-08-08T08:30:01.564Z,60.09
2022-08-08T08:31:01.579Z,61.44
2022-08-08T08:32:03.284Z,61.73
2022-08-08T08:33:01.638Z,61.44
2022-08-08T08:34:01.670Z,60.86
2022-08-08T08:35:03.396Z,60.99
2022-08-08T08:36:18.765Z,61.47
2022-08-08T08:37:03.337Z,60.89
2022-08-08T08:38:18.777Z,62.05
2022-08-08T08:39:01.845Z,61.37
2022-08-08T08:40:03.070Z,61.37
2022-08-08T08:41:03.215Z,61.30
2022-08-08T08:42:01.906Z,60.69
2022-08-08T08:43:01.938Z,61.11
2022-08-08T08:44:13.173Z,60.50
2022-08-08T08:45:02.000Z,60.63
2022-08-08T08:46:03.451Z,60.44
2022-08-08T08:47:02.057Z,60.05
2022-08-08T08:48:02.089Z,60.14
2022-08-08T08:49:02.119Z,60.14
2022-08-08T08:50:02.152Z,59.95
2022-08-08T08:51:02.177Z,60.66
2022-08-08T08:52:02.210Z,60.66
2022-08-08T08:53:04.843Z,59.98
2022-08-08T08:54:02.271Z,59.18
2022-08-08T08:55:02.302Z,60.05
2022-08-08T08:56:02.985Z,59.76
2022-08-08T08:57:02.363Z,59.47
2022-08-08T08:58:02.392Z,59.47
2022-08-08T08:59:02.422Z,59.28
2022-08-08T09:00:05.604Z,58.70
2022-08-08T09:01:05.326Z,59.28
2022-08-08T09:02:02.586Z,60.11
2022-08-08T09:03:02.545Z,59.44
2022-08-08T09:04:02.581Z,59.73
2022-08-08T09:05:02.605Z,59.44
2022-08-08T09:06:02.636Z,59.99
2022-08-08T09:07:02.665Z,59.51
2022-08-08T09:08:18.131Z,59.73
2022-08-08T09:09:02.725Z,60.18
2022-08-08T09:10:04.801Z,60.28
2022-08-08T09:11:02.785Z,59.80
2022-08-08T09:12:07.797Z,59.22
2022-08-08T09:13:02.851Z,59.83
2022-08-08T09:14:02.878Z,59.92
2022-08-08T09:15:02.904Z,59.83
2022-08-08T09:16:03.752Z,60.21
2022-08-08T09:17:09.822Z,60.41
2022-08-08T09:18:03.010Z,59.44
2022-08-08T09:19:03.032Z,60.14
2022-08-08T09:21:57.370Z,60.24
2022-08-08T09:21:58.398Z,60.34
2022-08-08T09:22:05.896Z,58.89
2022-08-08T09:23:03.149Z,58.80
2022-08-08T09:24:04.084Z,58.50
2022-08-08T09:25:03.893Z,58.12
2022-08-08T09:26:03.324Z,57.34
2022-08-08T09:27:03.269Z,56.95
2022-08-08T09:28:03.774Z,58.40
2022-08-08T09:29:08.269Z,58.60
2022-08-08T09:30:03.362Z,58.02
2022-08-08T09:31:12.909Z,56.57
2022-08-08T09:32:03.421Z,57.34
2022-08-08T09:33:12.947Z,58.21
2022-08-08T09:34:31.609Z,57.92
2022-08-08T09:35:08.140Z,58.02
2022-08-08T09:36:03.550Z,58.02
2022-08-08T09:37:34.161Z,57.92
2022-08-08T09:38:04.169Z,57.44
2022-08-08T09:39:03.721Z,58.21
2022-08-08T09:40:03.795Z,58.31
2022-08-08T09:41:03.697Z,57.08
2022-08-08T09:42:21.308Z,56.60
2022-08-08T09:43:06.826Z,56.21
2022-08-08T09:44:05.373Z,56.98
2022-08-08T09:45:08.152Z,56.60
2022-08-08T09:46:06.402Z,55.43
2022-08-08T09:47:05.579Z,54.66
2022-08-08T09:48:15.962Z,55.15
2022-08-08T09:49:18.534Z,54.75
2022-08-08T09:50:10.068Z,54.85
2022-08-08T09:51:05.073Z,55.24
2022-08-08T09:52:09.198Z,55.73
2022-08-08T09:53:23.452Z,55.24
2022-08-08T09:54:08.325Z,53.89
2022-08-08T09:55:04.120Z,54.27
2022-08-08T09:56:06.667Z,55.05
2022-08-08T09:57:04.196Z,55.24
2022-08-08T09:58:04.212Z,55.82
2022-08-08T09:59:20.201Z,55.85
2022-08-08T10:01:15.252Z,54.98
2022-08-08T10:02:12.307Z,55.17
2022-08-08T10:03:04.365Z,55.36
2022-08-08T10:04:04.641Z,54.49
2022-08-08T10:05:14.299Z,54.01
2022-08-08T10:06:04.529Z,53.33
2022-08-08T10:07:07.580Z,53.33
2022-08-08T10:08:04.522Z,53.43
2022-08-08T10:09:04.552Z,53.23
2022-08-08T10:10:07.151Z,53.81
2022-08-08T10:11:12.145Z,53.81
2022-08-08T10:12:27.444Z,54.21
2022-08-08T10:13:14.386Z,54.27
2022-08-08T10:14:06.167Z,54.21
2022-08-08T10:15:17.543Z,55.17
2022-08-08T10:16:05.358Z,54.01
2022-08-08T10:17:55.983Z,53.53
2022-08-08T10:18:07.758Z,52.85
2022-08-08T10:19:04.857Z,53.43
2022-08-08T10:20:04.887Z,53.53
2022-08-08T10:21:08.249Z,53.53
2022-08-08T10:22:04.948Z,53.81
2022-08-08T10:23:04.977Z,53.23
2022-08-08T10:24:05.038Z,53.43
2022-08-08T10:25:05.367Z,52.56
2022-08-08T10:26:05.071Z,52.27
2022-08-08T10:27:05.103Z,52.17
2022-08-08T10:28:05.134Z,52.49
2022-08-08T10:29:05.172Z,52.00
2022-08-08T10:30:05.200Z,52.20
2022-08-08T10:31:05.225Z,52.49
2022-08-08T10:32:05.258Z,52.97
2022-08-08T10:33:05.287Z,53.65
2022-08-08T10:34:19.494Z,53.07
2022-08-08T10:35:11.564Z,52.49
2022-08-08T10:36:08.372Z,52.49
2022-08-08T10:37:05.482Z,52.29
2022-08-08T10:38:05.703Z,52.49
2022-08-08T10:39:07.203Z,52.39
2022-08-08T10:40:07.251Z,51.42
2022-08-08T10:41:05.553Z,51.32
2022-08-08T10:42:15.118Z,51.32
2022-08-08T10:43:05.601Z,52.00
2022-08-08T10:44:05.625Z,53.26
2022-08-08T10:45:09.026Z,52.32
2022-08-08T10:46:05.687Z,51.81
2022-08-08T10:47:05.718Z,51.81
2022-08-08T10:48:05.746Z,51.90
2022-08-08T10:49:05.782Z,52.39
2022-08-08T10:50:05.816Z,52.29
2022-08-08T10:51:05.843Z,52.68
2022-08-08T10:52:05.875Z,52.10
2022-08-08T10:53:07.773Z,51.40
2022-08-08T10:54:05.942Z,51.13
2022-08-08T10:55:06.620Z,52.20
2022-08-08T10:56:05.997Z,52.20
2022-08-08T10:57:06.025Z,51.13
2022-08-08T10:58:06.159Z,51.32
2022-08-08T10:59:06.094Z,50.94
2022-08-08T11:00:06.119Z,51.32
2022-08-08T11:01:09.985Z,51.06
2022-08-08T11:02:06.238Z,51.35
2022-08-08T11:03:06.235Z,50.48
2022-08-08T11:04:06.287Z,50.38
2022-08-08T11:05:14.941Z,50.31
2022-08-08T11:06:06.308Z,49.80
2022-08-08T11:07:06.725Z,49.02
2022-08-08T11:08:31.362Z,49.02
2022-08-08T11:09:15.015Z,49.90
2022-08-08T11:10:06.437Z,50.67
2022-08-08T11:11:07.929Z,51.28
2022-08-08T11:12:14.062Z,50.99
2022-08-08T11:13:28.756Z,50.87
2022-08-08T11:14:06.559Z,50.89
2022-08-08T11:15:06.599Z,49.70
2022-08-08T11:16:07.779Z,49.70
2022-08-08T11:17:06.657Z,49.92
2022-08-08T11:18:06.686Z,51.47
2022-08-08T11:19:06.722Z,51.09
2022-08-08T11:20:10.920Z,50.31
2022-08-08T11:21:08.896Z,50.89
2022-08-08T11:22:06.812Z,49.85
2022-08-08T11:23:06.843Z,49.34
2022-08-08T11:24:06.879Z,49.34
2022-08-08T11:25:14.275Z,48.66
2022-08-08T11:26:06.936Z,47.98
2022-08-08T11:27:19.170Z,47.79
2022-08-08T11:28:06.998Z,48.57
2022-08-08T11:29:07.030Z,48.08
2022-08-08T11:30:20.296Z,47.30
2022-08-08T11:31:09.577Z,48.66
2022-08-08T11:32:07.127Z,49.17
2022-08-08T11:33:12.092Z,50.04
2022-08-08T11:34:23.270Z,49.66
2022-08-08T11:35:23.375Z,49.10
2022-08-08T11:36:07.253Z,48.80
2022-08-08T11:37:15.108Z,48.80
2022-08-08T11:38:37.073Z,47.93
2022-08-08T11:39:11.057Z,47.83
2022-08-08T11:40:07.524Z,48.71
2022-08-08T11:41:07.413Z,49.29
2022-08-08T11:42:09.059Z,48.90
2022-08-08T11:43:07.479Z,48.97
2022-08-08T11:44:07.508Z,48.88
2022-08-08T11:45:07.540Z,49.27
2022-08-08T11:46:17.725Z,49.56
2022-08-08T11:47:12.919Z,48.80
2022-08-08T11:48:09.846Z,48.49
2022-08-08T11:49:07.668Z,48.71
2022-08-08T11:50:10.096Z,49.58
2022-08-08T11:51:30.610Z,50.68
2022-08-08T11:52:07.763Z,48.64
2022-08-08T11:53:07.796Z,48.95
2022-08-08T11:54:26.734Z,47.40
2022-08-08T11:55:07.861Z,47.49
2022-08-08T11:56:07.894Z,47.40
2022-08-08T11:57:14.095Z,47.49
2022-08-08T11:58:15.394Z,48.08
2022-08-08T11:59:07.994Z,47.49
2022-08-08T12:00:09.812Z,47.30
2022-08-08T12:01:12.260Z,47.49
2022-08-08T12:02:31.122Z,47.20
2022-08-08T12:03:08.188Z,47.49
2022-08-08T12:04:08.155Z,47.49
2022-08-08T12:05:08.190Z,48.85
2022-08-08T12:06:08.218Z,48.54
2022-08-08T12:07:14.415Z,47.96
2022-08-08T12:08:08.285Z,47.35
2022-08-08T12:09:08.330Z,48.61
2022-08-08T12:10:08.940Z,48.80
2022-08-08T12:11:08.382Z,48.52
2022-08-08T12:12:08.412Z,48.71
2022-08-08T12:13:09.423Z,48.61
2022-08-08T12:14:11.782Z,48.61
2022-08-08T12:15:09.465Z,48.71
2022-08-08T12:16:08.542Z,48.80
2022-08-08T12:17:08.575Z,48.93
2022-08-08T12:18:08.611Z,47.96
2022-08-08T12:19:08.640Z,47.76
2022-08-08T12:20:08.674Z,47.57
2022-08-08T12:21:08.708Z,46.98
2022-08-08T12:22:12.769Z,46.79
2022-08-08T12:23:13.773Z,47.66
2022-08-08T12:24:08.917Z,48.05
2022-08-08T12:25:08.834Z,47.30
2022-08-08T12:26:08.865Z,46.81
2022-08-08T12:27:08.900Z,47.11
2022-08-08T12:28:14.343Z,46.33
2022-08-08T12:29:08.961Z,47.59
2022-08-08T12:30:18.546Z,47.78
2022-08-08T12:31:09.028Z,47.30
2022-08-08T12:32:09.315Z,47.13
2022-08-08T12:33:09.098Z,46.84
2022-08-08T12:34:09.272Z,47.03
2022-08-08T12:35:17.815Z,47.13
2022-08-08T12:36:09.192Z,45.84
2022-08-08T12:37:09.226Z,46.23
2022-08-08T12:38:09.279Z,47.01
2022-08-08T12:39:09.324Z,47.20
2022-08-08T12:40:09.364Z,46.33
2022-08-08T12:41:24.495Z,47.69
2022-08-08T12:42:21.028Z,48.08
2022-08-08T12:43:09.461Z,47.59
2022-08-08T12:44:09.452Z,47.40
2022-08-08T12:45:54.774Z,47.47
2022-08-08T12:46:09.513Z,47.18
2022-08-08T12:47:13.059Z,47.28
2022-08-08T12:48:35.759Z,47.76
2022-08-08T12:49:25.137Z,47.96
2022-08-08T12:50:09.647Z,48.73
2022-08-08T12:51:11.200Z,48.83
2022-08-08T12:52:28.074Z,49.12
2022-08-08T12:53:09.747Z,48.73
2022-08-08T12:54:24.620Z,48.54
2022-08-08T12:55:13.565Z,49.22
2022-08-08T12:56:19.891Z,48.93
2022-08-08T12:57:09.907Z,48.73
2022-08-08T12:58:09.913Z,48.83
2022-08-08T12:59:09.937Z,48.54
2022-08-08T13:00:13.151Z,48.64
2022-08-08T13:01:11.088Z,48.05
2022-08-08T13:02:10.107Z,47.28
2022-08-08T13:03:10.686Z,46.69
2022-08-08T13:04:10.098Z,46.98
2022-08-08T13:05:15.832Z,46.41